Time;durP1;ratioP1;P1;durP2;ratioP2;P2;SDS_P1;SDS_P2;PMS_P1;PMS_P2;Temp;Humidity;BMP_temperature;BMP_pressure;BME280_temperature;BME280_humidity;BME280_pressure;Samples;Min_cycle;Max_cycle;Signal;HPM_P1;HPM_P2
2022/10/10 00:01:34;;;;;;;;;28.00;24.25;;;;;16.22;93.87;99390.06;5056233;28;45440;-78
2022/10/10 00:04:00;;;;;;;;;27.50;23.00;;;;;16.21;94.04;99396.31;5057581;28;45310;-78
2022/10/10 00:06:26;;;;;;;;;25.00;23.75;;;;;16.19;94.31;99387.56;5055847;28;47199;-78
2022/10/10 00:08:52;;;;;;;;;21.50;20.00;;;;;16.17;94.15;99393.94;5057166;28;45397;-78
2022/10/10 00:11:20;;;;;;;;;23.50;23.00;;;;;16.17;94.35;99399.25;5057056;28;45392;-78
2022/10/10 00:13:46;;;;;;;;;22.00;20.75;;;;;16.14;94.55;99397.63;5057280;28;45486;-78
2022/10/10 00:16:12;;;;;;;;;23.75;21.75;;;;;16.13;94.67;99393.25;5057134;28;45560;-78
2022/10/10 00:18:39;;;;;;;;;24.00;22.25;;;;;16.11;94.61;99394.28;5056900;28;45427;-78
2022/10/10 00:21:05;;;;;;;;;22.50;21.25;;;;;16.11;94.60;99395.13;5057079;28;45416;-78
2022/10/10 00:23:31;;;;;;;;;25.50;24.00;;;;;16.08;94.35;99391.81;5057250;28;45504;-78
2022/10/10 00:25:56;;;;;;;;;23.00;21.25;;;;;16.04;94.61;99399.97;5072386;28;46943;-78
2022/10/10 00:28:22;;;;;;;;;25.25;20.75;;;;;16.02;94.48;99403.66;5072256;28;45455;-78
2022/10/10 00:30:47;;;;;;;;;25.75;23.00;;;;;16.01;95.19;99388.66;5056949;28;45163;-78
2022/10/10 00:33:13;;;;;;;;;26.00;22.75;;;;;16.00;95.15;99393.09;5057001;28;45637;-78
2022/10/10 00:35:39;;;;;;;;;25.00;22.75;;;;;16.00;94.60;99400.22;5056458;28;45394;-78
2022/10/10 00:38:04;;;;;;;;;22.75;21.00;;;;;15.97;95.30;99401.25;5056773;28;45533;-78
2022/10/10 00:40:30;;;;;;;;;23.50;19.75;;;;;15.97;95.21;99397.75;5056218;28;45433;-78
2022/10/10 00:42:56;;;;;;;;;24.75;22.50;;;;;15.95;95.00;99399.63;5057240;28;45567;-78
2022/10/10 00:45:24;;;;;;;;;27.25;25.50;;;;;15.97;95.84;99389.75;5056629;28;46578;-78
2022/10/10 00:47:54;;;;;;;;;22.00;21.25;;;;;15.96;95.48;99396.03;5056854;28;45408;-78
2022/10/10 00:50:21;;;;;;;;;28.25;27.75;;;;;15.96;95.73;99390.69;5056464;28;45464;-78
2022/10/10 00:52:46;;;;;;;;;32.00;29.00;;;;;15.95;95.97;99384.53;5056884;28;45427;-78
2022/10/10 00:55:12;;;;;;;;;25.00;25.00;;;;;15.94;96.16;99384.63;5056001;28;46397;-78
2022/10/10 00:57:38;;;;;;;;;31.67;27.00;;;;;15.93;96.08;99381.09;5071997;28;45464;-79
2022/10/10 01:00:04;;;;;;;;;26.00;25.50;;;;;15.94;95.92;99384.63;5056328;28;45346;-78
2022/10/10 01:02:30;;;;;;;;;32.75;28.50;;;;;15.93;96.40;99382.91;5056432;28;45397;-78
2022/10/10 01:04:55;;;;;;;;;26.50;21.75;;;;;15.92;96.12;99384.69;5054714;28;47453;-79
2022/10/10 01:07:25;;;;;;;;;30.00;25.50;;;;;15.92;96.11;99387.34;5056625;28;45369;-78
2022/10/10 01:09:55;;;;;;;;;26.25;21.75;;;;;15.91;96.09;99388.34;5056438;28;45246;-78
2022/10/10 01:12:24;;;;;;;;;27.50;24.50;;;;;15.92;96.25;99386.53;5055557;28;45398;-79
2022/10/10 01:14:58;;;;;;;;;27.50;24.00;;;;;15.93;96.05;99389.06;5071739;28;46866;-78
2022/10/10 01:17:50;;;;;;;;;21.75;21.75;;;;;15.93;96.18;99377.56;5056266;28;45405;-78
2022/10/10 01:20:47;;;;;;;;;22.50;21.25;;;;;15.91;95.92;99377.69;5056418;28;45477;-78
2022/10/10 01:23:50;;;;;;;;;25.75;24.50;;;;;15.89;95.83;99384.03;5039728;28;45305;-78
2022/10/10 01:26:25;;;;;;;;;23.00;23.00;;;;;15.86;95.72;99376.25;5071002;28;46884;-79
2022/10/10 01:29:09;;;;;;;;;22.00;21.25;;;;;15.85;95.89;99377.19;5056199;28;45272;-78
2022/10/10 01:31:41;;;;;;;;;24.25;22.00;;;;;15.84;95.57;99380.78;5056529;28;45278;-78
2022/10/10 01:34:24;;;;;;;;;24.00;23.25;;;;;15.81;95.85;99370.31;5055687;28;45407;-78
2022/10/10 01:37:07;;;;;;;;;22.75;20.00;;;;;15.80;95.71;99368.59;5055783;28;45538;-78
2022/10/10 01:39:55;;;;;;;;;23.50;23.00;;;;;15.79;95.95;99372.19;5054244;28;45962;-78
2022/10/10 01:42:28;;;;;;;;;14.00;13.50;;;;;15.76;96.04;99373.22;5055439;28;45589;-79
2022/10/10 01:44:53;;;;;;;;;24.00;23.50;;;;;15.75;96.01;99368.88;5071689;28;46204;-79
2022/10/10 01:47:21;;;;;;;;;28.25;26.50;;;;;15.75;96.01;99371.53;5055550;28;45876;-78
2022/10/10 01:49:49;;;;;;;;;26.25;23.00;;;;;15.74;96.15;99361.00;5054577;28;45444;-78
2022/10/10 01:52:36;;;;;;;;;27.25;26.25;;;;;15.73;96.17;99357.47;5054161;28;45412;-78
2022/10/10 01:55:25;;;;;;;;;30.00;24.75;;;;;15.73;96.06;99359.28;5055165;28;45417;-78
2022/10/10 01:58:36;;;;;;;;;22.25;22.00;;;;;15.73;96.31;99365.47;5055752;28;45643;-78
2022/10/10 02:01:14;;;;;;;;;19.75;19.50;;;;;15.74;96.02;99363.66;5044461;28;45345;-78
2022/10/10 02:03:49;;;;;;;;;22.25;20.50;;;;;15.74;96.45;99359.19;5055529;28;45416;-79
2022/10/10 02:06:39;;;;;;;;;26.00;25.25;;;;;15.76;96.31;99359.09;5055788;28;45407;-78
2022/10/10 02:09:16;;;;;;;;;18.75;18.00;;;;;15.75;96.27;99365.38;5049300;28;46013;-78
2022/10/10 02:11:42;;;;;;;;;24.50;21.50;;;;;15.74;96.26;99361.00;5070454;28;45914;-78
2022/10/10 02:14:21;;;;;;;;;25.50;21.50;;;;;15.75;96.37;99360.91;5055490;28;45368;-78
2022/10/10 02:16:52;;;;;;;;;18.75;17.00;;;;;15.74;96.53;99363.66;5055321;28;45574;-78
2022/10/10 02:19:20;;;;;;;;;19.75;18.25;;;;;15.75;96.10;99360.06;5055075;28;45589;-78
2022/10/10 02:21:51;;;;;;;;;23.75;21.75;;;;;15.75;96.59;99366.22;5053902;28;45480;-78
2022/10/10 02:24:18;;;;;;;;;16.50;16.50;;;;;15.74;96.15;99356.53;5070148;27;45440;-78
2022/10/10 02:26:48;;;;;;;;;18.00;18.00;;;;;15.74;96.19;99361.00;5054749;28;45436;-79
2022/10/10 02:29:27;;;;;;;;;22.75;20.25;;;;;15.73;96.19;99359.28;5054629;28;45550;-79
2022/10/10 02:32:05;;;;;;;;;17.50;16.00;;;;;15.73;96.35;99360.13;5055196;28;45405;-78
2022/10/10 02:34:41;;;;;;;;;20.25;19.50;;;;;15.70;95.90;99358.50;5055137;28;45393;-78
2022/10/10 02:37:11;;;;;;;;;18.00;17.25;;;;;15.69;96.01;99359.44;5070539;28;45258;-78
2022/10/10 02:39:42;;;;;;;;;18.25;16.50;;;;;15.69;96.29;99362.13;5054975;28;46371;-78
2022/10/10 02:42:11;;;;;;;;;14.50;14.25;;;;;15.68;96.39;99349.75;5054718;28;45542;-78
2022/10/10 02:44:38;;;;;;;;;19.75;18.25;;;;;15.69;96.55;99359.44;5055271;28;45351;-78
2022/10/10 02:47:04;;;;;;;;;18.00;15.50;;;;;15.69;96.07;99358.59;5054666;28;45514;-78
2022/10/10 02:49:32;;;;;;;;;19.75;14.75;;;;;15.68;95.85;99356.88;5070565;28;46773;-78
2022/10/10 02:51:58;;;;;;;;;20.00;18.25;;;;;15.65;96.06;99357.91;5054863;28;45302;-79
2022/10/10 02:54:24;;;;;;;;;21.50;20.00;;;;;15.63;96.41;99357.13;5055188;28;45453;-79
2022/10/10 02:56:49;;;;;;;;;22.75;20.50;;;;;15.60;96.52;99359.97;5053932;28;45364;-78
2022/10/10 02:59:15;;;;;;;;;17.00;16.00;;;;;15.60;96.20;99359.09;5053396;28;45626;-78
2022/10/10 03:01:40;;;;;;;;;15.25;15.00;;;;;15.56;96.47;99350.47;5054844;28;45487;-79
2022/10/10 03:04:06;;;;;;;;;20.00;18.50;;;;;15.57;96.33;99356.66;5054823;28;45317;-78
2022/10/10 03:06:31;;;;;;;;;19.00;16.00;;;;;15.56;96.81;99366.41;5054649;28;45488;-78
2022/10/10 03:08:57;;;;;;;;;13.75;13.75;;;;;15.56;96.60;99365.56;5054680;28;45905;-78
2022/10/10 03:11:22;;;;;;;;;19.50;19.50;;;;;15.55;96.64;99359.38;5054138;28;45415;-79
2022/10/10 03:13:48;;;;;;;;;21.00;20.50;;;;;15.54;97.00;99362.94;5054592;28;45328;-79
2022/10/10 03:16:13;;;;;;;;;20.50;17.25;;;;;15.56;96.78;99368.22;5054516;28;45400;-79
2022/10/10 03:18:38;;;;;;;;;16.00;15.75;;;;;15.56;96.95;99370.88;5054457;28;46583;-79
2022/10/10 03:21:04;;;;;;;;;16.00;16.00;;;;;15.53;96.52;99371.88;5052857;28;45335;-79
2022/10/10 03:23:30;;;;;;;;;18.00;17.25;;;;;15.53;96.67;99366.56;5054738;28;45522;-78
2022/10/10 03:25:56;;;;;;;;;20.25;19.75;;;;;15.54;96.65;99370.06;5053862;28;45464;-78
2022/10/10 03:28:21;;;;;;;;;16.25;16.25;;;;;15.53;96.61;99374.53;5054348;28;46106;-78
2022/10/10 03:30:47;;;;;;;;;19.00;16.25;;;;;15.53;96.92;99366.56;5054260;28;45440;-78
2022/10/10 03:33:13;;;;;;;;;14.75;14.25;;;;;15.53;96.78;99369.22;5054599;28;45452;-79
2022/10/10 03:35:38;;;;;;;;;15.25;13.50;;;;;15.53;96.34;99373.66;5053666;28;45550;-79
2022/10/10 03:38:05;;;;;;;;;16.25;13.75;;;;;15.52;96.17;99374.59;5057215;28;45610;-78
2022/10/10 03:40:31;;;;;;;;;14.75;14.75;;;;;15.48;96.34;99365.09;5057329;28;45392;-79
2022/10/10 03:42:57;;;;;;;;;21.50;16.25;;;;;15.45;96.35;99376.72;5073538;28;45272;-78
2022/10/10 03:45:23;;;;;;;;;17.00;16.50;;;;;15.44;96.28;99374.16;5057105;28;45459;-78
2022/10/10 03:47:49;;;;;;;;;17.75;16.00;;;;;15.39;96.29;99374.44;5057383;28;46725;-79
2022/10/10 03:50:14;;;;;;;;;16.75;14.00;;;;;15.38;96.30;99377.19;5055973;28;45277;-79
2022/10/10 03:52:40;;;;;;;;;13.75;12.25;;;;;15.34;96.72;99372.03;5057619;28;45390;-78
2022/10/10 03:55:06;;;;;;;;;18.00;16.50;;;;;15.31;96.83;99374.84;5057327;28;45473;-79
2022/10/10 03:57:31;;;;;;;;;18.75;16.50;;;;;15.29;96.84;99370.56;5057392;28;46187;-78
2022/10/10 03:59:57;;;;;;;;;14.75;13.75;;;;;15.25;97.11;99376.97;5057558;28;45412;-78
2022/10/10 04:02:22;;;;;;;;;20.75;16.25;;;;;15.22;97.30;99377.16;5057545;28;45474;-79
2022/10/10 04:04:47;;;;;;;;;16.50;16.50;;;;;15.20;97.32;99377.25;5057142;28;45433;-79
2022/10/10 04:07:13;;;;;;;;;19.50;18.25;;;;;15.19;97.49;99380.00;5055715;28;48557;-79
2022/10/10 04:09:38;;;;;;;;;17.50;16.50;;;;;15.18;98.02;99376.47;5057093;28;45481;-78
2022/10/10 04:12:04;;;;;;;;;20.75;16.75;;;;;15.19;98.40;99386.16;5072436;27;45532;-78
2022/10/10 04:14:29;;;;;;;;;23.00;18.00;;;;;15.20;98.35;99373.75;5055566;28;45412;-78
2022/10/10 04:16:55;;;;;;;;;22.25;22.00;;;;;15.21;98.43;99378.09;5057073;28;46310;-78
2022/10/10 04:19:20;;;;;;;;;18.50;18.50;;;;;15.22;98.44;99377.16;5057087;28;45367;-78
2022/10/10 04:21:45;;;;;;;;;22.50;21.50;;;;;15.23;98.56;99382.41;5055413;28;45945;-79
2022/10/10 04:24:11;;;;;;;;;26.50;24.50;;;;;15.24;98.93;99380.59;5057075;28;45396;-79
2022/10/10 04:26:36;;;;;;;;;24.25;21.25;;;;;15.25;98.41;99380.50;5056254;28;45592;-78
2022/10/10 04:29:02;;;;;;;;;18.75;16.50;;;;;15.25;98.47;99376.97;5055272;27;45385;-78
2022/10/10 04:31:28;;;;;;;;;20.75;18.25;;;;;15.25;98.55;99375.19;5071815;28;45408;-78
2022/10/10 04:33:53;;;;;;;;;21.00;19.00;;;;;15.26;98.46;99379.56;5056773;28;45560;-78
2022/10/10 04:36:19;;;;;;;;;18.25;17.50;;;;;15.27;98.71;99375.97;5056764;28;46189;-78
2022/10/10 04:38:44;;;;;;;;;22.25;20.75;;;;;15.30;98.64;99381.09;5056659;28;45428;-78
2022/10/10 04:41:10;;;;;;;;;20.25;17.50;;;;;15.31;98.22;99374.84;5055791;28;45443;-78
2022/10/10 04:43:35;;;;;;;;;22.50;19.25;;;;;15.32;98.27;99381.88;5071966;28;45417;-78
2022/10/10 04:46:01;;;;;;;;;17.00;13.25;;;;;15.35;98.10;99389.69;5056452;28;45551;-78
2022/10/10 04:48:26;;;;;;;;;21.50;19.50;;;;;15.35;97.42;99391.50;5055904;28;45333;-78
2022/10/10 04:50:53;;;;;;;;;21.25;19.00;;;;;15.34;97.69;99395.94;5056410;28;45390;-78
2022/10/10 04:53:18;;;;;;;;;19.50;17.00;;;;;15.34;97.56;99393.28;5056416;28;45415;-79
2022/10/10 04:55:44;;;;;;;;;19.25;18.75;;;;;15.35;97.53;99397.66;5055809;28;46439;-78
2022/10/10 04:58:09;;;;;;;;;53.00;43.33;;;;;15.38;97.30;99390.47;5055870;28;45477;-78
2022/10/10 05:00:36;;;;;;;;;21.50;17.75;;;;;15.38;97.14;99393.13;5056195;28;45396;-79
2022/10/10 05:03:02;;;;;;;;;18.25;16.50;;;;;15.40;97.06;99394.75;5055272;28;45344;-78
2022/10/10 05:05:27;;;;;;;;;17.75;14.25;;;;;15.44;97.19;99403.38;5054789;28;47575;-78
2022/10/10 05:07:52;;;;;;;;;19.00;18.00;;;;;15.46;97.10;99396.19;5056076;28;45334;-78
2022/10/10 05:10:18;;;;;;;;;14.75;14.50;;;;;15.47;96.76;99401.44;5055647;28;45682;-78
2022/10/10 05:12:43;;;;;;;;;21.25;19.00;;;;;15.49;96.90;99402.19;5055896;28;45650;-78
2022/10/10 05:15:09;;;;;;;;;18.25;16.25;;;;;15.51;97.12;99402.13;5054024;28;47308;-78
2022/10/10 05:17:34;;;;;;;;;17.25;16.75;;;;;15.51;97.16;99402.97;5055119;28;45301;-78
2022/10/10 05:20:00;;;;;;;;;27.00;22.00;;;;;15.53;97.07;99408.22;5055833;28;45266;-79
2022/10/10 05:22:25;;;;;;;;;24.00;22.50;;;;;15.53;97.22;99400.25;5054632;28;45628;-78
2022/10/10 05:24:50;;;;;;;;;23.50;22.25;;;;;15.54;96.99;99404.63;5055262;28;45513;-78
2022/10/10 05:27:16;;;;;;;;;20.75;17.75;;;;;15.57;97.16;99399.16;5055443;28;45454;-78
2022/10/10 05:29:41;;;;;;;;;18.75;18.50;;;;;15.58;96.99;99401.75;5055884;28;45499;-78
2022/10/10 05:32:08;;;;;;;;;21.50;19.00;;;;;15.61;96.61;99406.00;5055727;28;45523;-78
2022/10/10 05:34:33;;;;;;;;;15.25;13.25;;;;;15.62;96.59;99413.88;5055031;27;45408;-78
2022/10/10 05:36:58;;;;;;;;;21.00;19.00;;;;;15.66;96.85;99411.91;5055450;28;45382;-78
2022/10/10 05:39:24;;;;;;;;;24.50;19.75;;;;;15.69;96.42;99422.38;5053833;28;45456;-78
2022/10/10 05:41:49;;;;;;;;;22.50;21.75;;;;;15.72;96.72;99416.03;5054613;28;45359;-78
2022/10/10 05:44:15;;;;;;;;;22.50;20.50;;;;;15.72;96.14;99414.25;5055094;28;45445;-78
2022/10/10 05:46:40;;;;;;;;;21.50;19.50;;;;;15.74;96.22;99425.66;5070758;28;45375;-78
2022/10/10 05:49:06;;;;;;;;;17.00;16.25;;;;;15.75;96.28;99416.75;5054713;28;45647;-79
2022/10/10 05:51:31;;;;;;;;;18.75;18.00;;;;;15.77;95.88;99420.13;5054638;28;45197;-78
2022/10/10 05:53:57;;;;;;;;;23.25;21.25;;;;;15.77;95.84;99416.63;5054801;28;46212;-78
2022/10/10 05:56:22;;;;;;;;;23.00;21.00;;;;;15.78;95.58;99418.34;5052938;28;45326;-78
2022/10/10 05:58:50;;;;;;;;;27.00;21.50;;;;;15.78;95.84;99423.66;5053935;28;45396;-78
2022/10/10 06:01:15;;;;;;;;;18.75;18.25;;;;;15.78;95.75;99419.19;5053928;28;45498;-78
2022/10/10 06:03:41;;;;;;;;;25.25;20.25;;;;;15.79;96.11;99425.38;5054392;28;45543;-78
2022/10/10 06:06:06;;;;;;;;;24.75;22.25;;;;;15.82;95.81;99425.19;5053104;28;45746;-79
2022/10/10 06:08:32;;;;;;;;;26.75;21.25;;;;;15.84;95.42;99431.28;5052406;28;45407;-78
2022/10/10 06:11:10;;;;;;;;;23.25;18.00;;;;;15.86;95.48;99426.75;5053977;28;45464;-78
2022/10/10 06:13:37;;;;;;;;;22.00;19.75;;;;;15.88;95.52;99433.69;5052836;28;48134;-78
2022/10/10 06:16:02;;;;;;;;;21.25;19.50;;;;;15.90;95.56;99433.63;5054025;28;45354;-78
2022/10/10 06:18:28;;;;;;;;;23.50;21.00;;;;;15.93;95.26;99436.06;5052702;28;45517;-78
2022/10/10 06:20:59;;;;;;;;;23.50;23.25;;;;;15.94;95.44;99437.78;5054005;28;45465;-78
2022/10/10 06:23:24;;;;;;;;;19.75;19.75;;;;;15.97;95.21;99441.16;5053894;28;46569;-78
2022/10/10 06:25:51;;;;;;;;;25.50;22.50;;;;;15.97;95.36;99441.16;5053274;28;45441;-78
2022/10/10 06:28:17;;;;;;;;;21.50;20.50;;;;;15.99;95.25;99443.72;5054648;28;45383;-78
2022/10/10 06:30:43;;;;;;;;;23.75;22.50;;;;;16.01;94.92;99447.16;5053985;28;45388;-78
2022/10/10 06:33:09;;;;;;;;;26.25;23.75;;;;;16.01;95.32;99450.66;5041042;28;45314;-78
2022/10/10 06:35:41;;;;;;;;;21.75;20.00;;;;;16.03;94.88;99446.13;5052358;28;45684;-78
2022/10/10 06:38:07;;;;;;;;;23.50;22.75;;;;;16.05;95.18;99454.88;5054470;28;45447;-78
2022/10/10 06:40:33;;;;;;;;;24.75;18.75;;;;;16.08;94.79;99453.84;5053599;28;45521;-79
2022/10/10 06:42:58;;;;;;;;;21.50;18.25;;;;;16.10;94.73;99459.91;5053474;28;45486;-79
2022/10/10 06:45:24;;;;;;;;;17.25;15.25;;;;;16.11;94.75;99455.44;5054454;28;45258;-79
2022/10/10 06:47:50;;;;;;;;;19.75;19.75;;;;;16.11;94.69;99461.63;5054082;28;45221;-79
2022/10/10 06:50:15;;;;;;;;;19.00;18.75;;;;;16.13;94.54;99472.19;5053903;28;45455;-79
2022/10/10 06:52:40;;;;;;;;;23.00;18.75;;;;;16.15;94.76;99478.28;5054243;28;45454;-79
2022/10/10 06:55:06;;;;;;;;;31.25;27.50;;;;;16.16;94.50;99478.19;5053054;28;45420;-79
2022/10/10 06:57:32;;;;;;;;;18.50;18.00;;;;;16.18;93.98;99476.31;5053824;28;45407;-79
2022/10/10 06:59:57;;;;;;;;;17.00;15.50;;;;;16.20;93.87;99476.22;5053796;28;45459;-78
2022/10/10 07:02:23;;;;;;;;;21.75;16.50;;;;;16.21;93.64;99481.47;5054101;28;46001;-78
2022/10/10 07:04:49;;;;;;;;;18.00;17.25;;;;;16.21;93.56;99489.44;5069550;28;45430;-79
2022/10/10 07:07:15;;;;;;;;;22.00;20.25;;;;;16.23;93.72;99482.22;5054408;28;45375;-78
2022/10/10 07:09:41;;;;;;;;;21.50;19.50;;;;;16.26;93.96;99481.16;5053945;28;45424;-79
2022/10/10 07:12:06;;;;;;;;;18.75;15.50;;;;;16.28;93.68;99489.91;5056375;28;46177;-78
2022/10/10 07:14:31;;;;;;;;;24.00;20.00;;;;;16.30;93.78;99494.22;5057236;28;45519;-79
2022/10/10 07:16:57;;;;;;;;;25.25;21.50;;;;;16.33;93.52;99502.03;5057364;28;45512;-79
2022/10/10 07:19:23;;;;;;;;;24.50;21.50;;;;;16.35;93.47;99497.47;5057273;28;45384;-77
2022/10/10 07:21:49;;;;;;;;;20.50;17.75;;;;;16.36;93.14;99496.53;5057199;28;45580;-77
2022/10/10 07:24:15;;;;;;;;;23.75;17.00;;;;;16.38;93.71;99502.63;5055705;28;45249;-79
2022/10/10 07:26:41;;;;;;;;;19.00;19.00;;;;;16.42;93.19;99506.81;5056902;28;45504;-79
2022/10/10 07:29:06;;;;;;;;;22.25;21.50;;;;;16.46;93.01;99512.81;5072769;28;45538;-79
2022/10/10 07:31:32;;;;;;;;;20.00;17.25;;;;;16.50;92.80;99519.69;5057548;28;45403;-79
2022/10/10 07:33:57;;;;;;;;;20.50;18.75;;;;;16.54;93.18;99512.38;5056914;28;45396;-78
2022/10/10 07:36:23;;;;;;;;;15.25;13.50;;;;;16.59;93.21;99518.31;5057308;28;45367;-78
2022/10/10 07:38:50;;;;;;;;;23.00;21.25;;;;;16.67;92.41;99519.59;5057337;28;45413;-78
2022/10/10 07:41:18;;;;;;;;;21.00;20.00;;;;;16.73;92.21;99521.91;5043329;28;45551;-78
2022/10/10 07:43:44;;;;;;;;;21.00;19.25;;;;;16.82;92.26;99522.28;5057101;28;45335;-79
2022/10/10 07:46:18;;;;;;;;;25.25;18.75;;;;;16.89;91.81;99526.31;5057387;28;45205;-78
2022/10/10 07:48:43;;;;;;;;;25.50;21.00;;;;;16.97;91.17;99527.56;5057029;28;45313;-79
2022/10/10 07:51:09;;;;;;;;;17.25;14.50;;;;;17.02;91.22;99525.50;5056942;28;45368;-79
2022/10/10 07:53:35;;;;;;;;;21.75;17.50;;;;;17.04;90.93;99526.25;5056977;28;45364;-79
2022/10/10 07:56:04;;;;;;;;;17.25;16.25;;;;;17.06;90.67;99526.19;5057053;28;45310;-79
2022/10/10 07:58:29;;;;;;;;;20.50;18.00;;;;;17.07;90.23;99527.88;5056780;28;45447;-79
2022/10/10 08:01:06;;;;;;;;;20.00;16.75;;;;;17.09;90.41;99526.81;5057191;28;46374;-79
2022/10/10 08:03:32;;;;;;;;;25.50;19.75;;;;;17.13;89.99;99526.63;5056743;28;45418;-79
2022/10/10 08:05:57;;;;;;;;;12.75;12.00;;;;;17.18;90.47;99525.44;5056825;28;45356;-79
2022/10/10 08:08:23;;;;;;;;;25.00;22.00;;;;;17.25;89.62;99529.44;5071889;28;45400;-79
2022/10/10 08:10:48;;;;;;;;;19.25;15.50;;;;;17.33;89.67;99531.63;5056716;28;45365;-79
2022/10/10 08:13:13;;;;;;;;;26.00;21.50;;;;;17.37;89.49;99523.34;5056253;28;45341;-79
2022/10/10 08:15:39;;;;;;;;;19.75;18.25;;;;;17.41;88.85;99526.69;5055504;28;45988;-77
2022/10/10 08:18:05;;;;;;;;;18.00;16.75;;;;;17.47;88.51;99530.78;5055069;28;45301;-79
2022/10/10 08:20:30;;;;;;;;;26.25;19.25;;;;;17.50;88.53;99520.78;5072201;28;48104;-79
2022/10/10 08:22:55;;;;;;;;;22.75;19.00;;;;;17.55;87.69;99525.84;5055705;28;45364;-79
2022/10/10 08:25:21;;;;;;;;;15.25;13.75;;;;;17.58;87.49;99522.97;5072073;28;45417;-79
2022/10/10 08:27:46;;;;;;;;;18.00;15.50;;;;;17.61;87.61;99518.28;5071638;28;45480;-78
2022/10/10 08:30:12;;;;;;;;;17.25;16.00;;;;;17.67;87.35;99523.28;5056215;28;45681;-78
2022/10/10 08:32:37;;;;;;;;;17.25;13.75;;;;;17.72;86.67;99510.53;5056163;28;45388;-79
2022/10/10 08:35:03;;;;;;;;;15.75;14.25;;;;;17.76;86.16;99514.69;5055428;28;45411;-79
2022/10/10 08:37:28;;;;;;;;;15.50;15.50;;;;;17.81;86.14;99511.75;5056488;28;45519;-79
2022/10/10 08:39:54;;;;;;;;;17.50;13.25;;;;;17.86;85.37;99514.13;5056089;28;46151;-78
2022/10/10 08:42:31;;;;;;;;;13.50;12.50;;;;;17.90;85.36;99515.66;5056488;28;45283;-78
2022/10/10 08:45:02;;;;;;;;;10.75;9.50;;;;;17.94;85.22;99514.47;5056427;28;45475;-79
2022/10/10 08:47:43;;;;;;;;;13.50;13.00;;;;;17.96;85.15;99509.91;5055768;28;45325;-79
2022/10/10 08:50:49;;;;;;;;;10.25;9.00;;;;;17.96;85.36;99504.56;5056229;28;45590;-79
2022/10/10 08:53:27;;;;;;;;;12.60;11.40;;;;;17.95;85.26;99502.84;5071805;28;45387;-79
2022/10/10 08:55:54;;;;;;;;;11.75;11.00;;;;;17.97;85.25;99507.13;5043659;28;45494;-79
2022/10/10 08:58:23;;;;;;;;;10.75;10.00;;;;;18.00;85.37;99509.63;5055797;28;45322;-77
2022/10/10 09:01:11;;;;;;;;;14.00;12.25;;;;;18.02;84.80;99510.38;5056282;28;46186;-77
2022/10/10 09:03:44;;;;;;;;;12.20;11.00;;;;;18.03;84.63;99505.91;5056024;28;45464;-77
2022/10/10 09:06:25;;;;;;;;;11.00;10.00;;;;;18.03;84.85;99505.91;5055801;28;45436;-77
2022/10/10 09:08:59;;;;;;;;;10.00;10.00;;;;;18.03;84.05;99508.56;5042982;28;45348;-77
2022/10/10 09:11:47;;;;;;;;;7.75;7.75;;;;;18.04;84.12;99508.47;5054981;28;45646;-79
2022/10/10 09:14:22;;;;;;;;;15.80;13.00;;;;;18.07;83.72;99507.41;5054052;28;45729;-77
2022/10/10 09:17:31;;;;;;;;;10.00;10.00;;;;;18.09;83.00;99506.38;5055151;28;45361;-78
2022/10/10 09:20:03;;;;;;;;;9.75;9.00;;;;;18.12;82.74;99507.97;5044033;28;45688;-77
2022/10/10 09:22:34;;;;;;;;;8.75;8.75;;;;;18.13;82.90;99504.34;5070906;28;47670;-78
2022/10/10 09:25:21;;;;;;;;;16.75;15.75;;;;;18.13;82.75;99507.00;5054959;28;45575;-78
2022/10/10 09:27:57;;;;;;;;;11.50;11.00;;;;;18.16;82.94;99501.47;5055634;28;45355;-78
2022/10/10 09:30:24;;;;;;;;;8.00;8.00;;;;;18.20;82.48;99503.00;5055731;28;45404;-77
2022/10/10 09:32:53;;;;;;;;;9.75;9.75;;;;;18.23;82.38;99508.13;5055511;28;45577;-78
2022/10/10 09:35:24;;;;;;;;;6.00;5.00;;;;;18.28;82.02;99506.00;5070652;28;45444;-78
2022/10/10 09:37:56;;;;;;;;;8.00;8.00;;;;;18.32;81.72;99510.19;5055292;28;45151;-77
2022/10/10 09:40:27;;;;;;;;;10.00;9.00;;;;;18.37;82.21;99508.09;5055133;28;45442;-78
2022/10/10 09:42:52;;;;;;;;;9.00;8.00;;;;;18.43;81.20;99504.16;5055057;28;46333;-78
2022/10/10 09:45:27;;;;;;;;;10.00;8.75;;;;;18.46;81.63;99510.13;5055151;28;45449;-77
2022/10/10 09:47:54;;;;;;;;;7.25;7.25;;;;;18.51;81.34;99501.81;5055264;28;45412;-77
2022/10/10 09:50:21;;;;;;;;;10.00;8.75;;;;;18.55;80.53;99506.00;5055001;28;45459;-78
2022/10/10 09:52:47;;;;;;;;;7.50;7.50;;;;;18.61;80.27;99502.09;5055316;28;46231;-78
2022/10/10 09:55:25;;;;;;;;;7.00;7.00;;;;;18.67;80.71;99502.56;5054468;28;45479;-78
2022/10/10 09:57:53;;;;;;;;;9.40;8.40;;;;;18.72;80.01;99496.91;5055061;28;45432;-78
2022/10/10 10:00:18;;;;;;;;;5.00;4.00;;;;;18.75;80.53;99500.22;5054750;28;45463;-78
2022/10/10 10:02:48;;;;;;;;;7.00;7.00;;;;;18.79;80.40;99498.19;5070097;28;47140;-78
2022/10/10 10:05:24;;;;;;;;;11.00;11.00;;;;;18.82;79.75;99497.97;5054485;28;45594;-77
2022/10/10 10:07:51;;;;;;;;;7.00;6.80;;;;;18.84;79.61;99501.41;5054556;28;45367;-80
2022/10/10 10:10:23;;;;;;;;;7.00;7.00;;;;;18.86;78.95;99502.16;5054008;28;45507;-77
2022/10/10 10:12:49;;;;;;;;;5.20;5.20;;;;;18.88;79.37;99496.72;5069476;28;47346;-77
2022/10/10 10:15:21;;;;;;;;;9.60;9.00;;;;;18.91;79.36;99494.69;5041100;28;45384;-77
2022/10/10 10:18:09;;;;;;;;;5.80;5.20;;;;;18.96;78.58;99489.88;5054508;28;45491;-77
2022/10/10 10:20:38;;;;;;;;;8.00;8.00;;;;;19.03;78.80;99484.97;5054661;28;45386;-77
2022/10/10 10:23:03;;;;;;;;;6.75;6.00;;;;;19.09;78.35;99485.44;5052827;28;48339;-77
2022/10/10 10:25:30;;;;;;;;;9.00;7.50;;;;;19.16;77.89;99486.69;5053984;28;45411;-76
2022/10/10 10:28:14;;;;;;;;;10.00;9.00;;;;;19.23;77.75;99497.81;5054237;28;45487;-79
2022/10/10 10:30:42;;;;;;;;;7.00;7.00;;;;;19.31;77.81;99492.78;5054389;28;45444;-77
2022/10/10 10:33:26;;;;;;;;;9.00;8.00;;;;;19.38;77.47;99491.41;5054432;28;45444;-77
2022/10/10 10:36:00;;;;;;;;;7.40;6.80;;;;;19.48;77.00;99494.28;5069360;28;45527;-77
2022/10/10 10:38:51;;;;;;;;;6.20;6.20;;;;;19.56;76.75;99488.44;5054691;28;45425;-79
2022/10/10 10:41:38;;;;;;;;;8.25;7.50;;;;;19.57;77.09;99480.31;5053876;28;45392;-78
2022/10/10 10:44:26;;;;;;;;;8.00;8.00;;;;;19.59;76.75;99483.72;5054210;28;45750;-78
2022/10/10 10:47:22;;;;;;;;;8.00;8.00;;;;;19.66;76.19;99481.44;5042702;28;45407;-78
2022/10/10 10:50:10;;;;;;;;;8.50;8.50;;;;;19.74;75.94;99484.44;5070155;28;45379;-77
2022/10/10 10:52:52;;;;;;;;;8.75;7.75;;;;;19.82;75.96;99477.56;5069928;28;45550;-77
2022/10/10 10:55:36;;;;;;;;;7.80;7.80;;;;;19.92;75.70;99474.22;5054031;28;45286;-78
2022/10/10 10:58:15;;;;;;;;;9.60;6.40;;;;;20.03;75.64;99474.28;5054193;28;45187;-77
2022/10/10 11:00:51;;;;;;;;;9.00;8.00;;;;;20.09;74.92;99474.72;5069725;27;45357;-79
2022/10/10 11:03:44;;;;;;;;;6.00;6.00;;;;;20.10;75.27;99468.38;5053730;28;45581;-78
2022/10/10 11:06:29;;;;;;;;;8.60;7.00;;;;;20.13;74.69;99465.47;5053937;28;45990;-79
2022/10/10 11:09:20;;;;;;;;;13.20;12.00;;;;;20.19;74.73;99461.47;5054649;28;45309;-79
2022/10/10 11:11:45;;;;;;;;;5.40;5.40;;;;;20.21;73.44;99459.56;5053691;28;45389;-79
2022/10/10 11:14:26;;;;;;;;;6.00;5.00;;;;;20.22;73.80;99463.94;5053918;28;45485;-79
2022/10/10 11:16:59;;;;;;;;;5.50;5.00;;;;;20.26;73.14;99465.44;5040735;28;46316;-78
2022/10/10 11:19:38;;;;;;;;;5.20;5.00;;;;;20.29;73.07;99459.81;5052525;28;45331;-79
2022/10/10 11:22:10;;;;;;;;;5.80;5.80;;;;;20.34;73.03;99454.97;5053584;28;45253;-79
2022/10/10 11:24:45;;;;;;;;;9.75;7.50;;;;;20.40;72.88;99446.53;5052968;28;45361;-78
2022/10/10 11:27:19;;;;;;;;;6.00;6.00;;;;;20.46;72.21;99453.22;5053647;28;45467;-79
2022/10/10 11:29:51;;;;;;;;;5.20;5.20;;;;;20.50;72.22;99455.56;5053567;28;45457;-77
2022/10/10 11:32:23;;;;;;;;;9.80;6.80;;;;;20.55;72.54;99449.88;5054231;28;45437;-77